Westside, Iowa
Current Conditions -  °F | °C
As of 1:15 AM on Friday 19 Dec 2014 (Local Time) from KDNS Reporting Station
Overcast Overcast  
Wind Chill: 24°   Ceiling: 900
Heat Index: 30°   Visibility: 10mi
Dew Point: 28°   Wind: 6mph
Humidity: 93%   Direction: 190°S
Pressure: 30.22"   Gusts: NA
Location:  42.06°N, 95.1°W
Report Text: KDNS 190715Z AUTO 19005KT 10SM OVC009 M01/M02 A3022 RMK AO2
Loading
Personal Weather Stations






























Interactive Weather Map New forecast layout! Learn more

10-Day Weather Forecast

Advertisements
Track Severe Weather on mobile